CYYL

Lynn Lake Airport

Lynn Lake, Manitoba, Canada
TAF CYYL 171838Z 1719/1807 16010KT P6SM BKN040 TEMPO 1719/1721 P6SM -SN BKN020 FM172100 17012KT P6SM BKN025 TEMPO 1721/1801 3SM -SN BKN010 PROB30 1721/1801 2SM -FZDZ BR BKN008 FM180100 18012KT P6SM FEW120 RMK FCST BASED ON AUTO OBS. NXT FCST BY 180100Z
Issued Valid From Valid To
Oct-17 @ 18:38 UTC
(2 hours ago)
Oct-17 @ 19:00 UTC
(2 hours ago)
Oct-18 @ 07:00 UTC
(in 10 hours)
Oct-17 @ 19:00 to Oct-17 @ 21:00
TAF CYYL 171838Z 1719/1807 16010KT P6SM BKN040
Wind Visibility Clouds
160° at 10 knots Greater than 6 miles
  • Broken at 4,000' AGL
Temporary Oct-17 @ 19:00 to Oct-17 @ 21:00
TEMPO 1719/1721 P6SM -SN BKN020
Visibility Clouds Conditions
Greater than 6 miles
  • Broken at 2,000' AGL
  • Light Snow
From Oct-17 @ 21:00 to Oct-18 @ 01:00
FM172100 17012KT P6SM BKN025
Wind Visibility Clouds
170° at 12 knots Greater than 6 miles
  • Broken at 2,500' AGL
Temporary Oct-17 @ 21:00 to Oct-18 @ 01:00
TEMPO 1721/1801 3SM -SN BKN010
Visibility Clouds Conditions
3 miles
  • Broken at 1,000' AGL
  • Light Snow
Probable  (Probability 30%) Oct-17 @ 21:00 to Oct-18 @ 01:00
PROB30 1721/1801 2SM -FZDZ BR BKN008
Visibility Clouds Conditions
2 miles
  • Broken at 800' AGL
  • Light Freezing
  • Light Drizzle
  • Mist
From Oct-18 @ 01:00 to Oct-18 @ 07:00
FM180100 18012KT P6SM FEW120 RMK FCST BASED ON AUTO OBS. NXT FCST BY 180100Z
Wind Visibility Clouds
180° at 12 knots Greater than 6 miles
  • Few at 12,000' AGL
TAF CYYL 171838Z 1719/1807 16010KT P6SM BKN040 TEMPO 1719/1721 P6SM -SN BKN020 FM172100 17012KT P6SM BKN025 TEMPO 1721/1801 3SM -SN BKN010 PROB30 1721/1801 2SM -FZDZ BR BKN008 FM180100 18012KT P6SM FEW120 RMK FCST BASED ON AUTO OBS. NXT FCST BY 180100Z
Issued Oct-17 @ 18:38 UTC
(2 hours ago)
Valid From Oct-17 @ 19:00 UTC
(2 hours ago)
Valid To Oct-18 @ 07:00 UTC
(in 10 hours)
Oct-17 @ 19:00 - Oct-17 @ 21:00
Wind Visibility
160° at 10 knots Greater than 6 miles
Clouds
  • Broken at 4,000' AGL
Temporary Oct-17 @ 19:00 - Oct-17 @ 21:00
Clouds
  • Broken at 2,000' AGL
Conditions
  • Light Snow
From Oct-17 @ 21:00 - Oct-18 @ 01:00
Wind Visibility
170° at 12 knots Greater than 6 miles
Clouds
  • Broken at 2,500' AGL
Temporary Oct-17 @ 21:00 - Oct-18 @ 01:00
Clouds
  • Broken at 1,000' AGL
Conditions
  • Light Snow
Probability 30% Probable Oct-17 @ 21:00 - Oct-18 @ 01:00
Clouds
  • Broken at 800' AGL
Conditions
  • Light Freezing
  • Light Drizzle
  • Mist
From Oct-18 @ 01:00 - Oct-18 @ 07:00
Wind Visibility
180° at 12 knots Greater than 6 miles
Clouds
  • Few at 12,000' AGL